createdAt,value
2022-09-10T00:01:27.406Z,4.15
2022-09-10T00:03:56.924Z,2.83
2022-09-10T00:06:27.828Z,7.85
2022-09-10T00:08:57.747Z,4.20
2022-09-10T00:11:30.134Z,2.55
2022-09-10T00:13:58.441Z,2.97
2022-09-10T00:16:27.616Z,3.55
2022-09-10T00:18:58.226Z,2.78
2022-09-10T00:21:26.264Z,5.70
2022-09-10T00:23:54.440Z,4.88
2022-09-10T00:26:24.612Z,2.25
2022-09-10T00:28:54.332Z,2.72
2022-09-10T00:31:24.301Z,4.43
2022-09-10T00:33:54.787Z,5.15
2022-09-10T00:36:26.026Z,3.15
2022-09-10T00:38:55.837Z,3.53
2022-09-10T00:41:25.867Z,2.10
2022-09-10T00:43:56.832Z,4.95
2022-09-10T00:46:36.495Z,2.90
2022-09-10T00:49:10.400Z,4.22
2022-09-10T00:51:40.391Z,2.75
2022-09-10T00:54:09.296Z,5.53
2022-09-10T00:56:39.072Z,7.10
2022-09-10T00:59:10.822Z,4.13
2022-09-10T01:01:40.409Z,5.25
2022-09-10T01:04:10.350Z,3.47
2022-09-10T01:06:41.704Z,5.05
2022-09-10T01:09:10.682Z,4.57
2022-09-10T01:12:04.998Z,2.65
2022-09-10T01:14:54.502Z,4.22
2022-09-10T01:17:30.130Z,5.03
2022-09-10T01:20:52.481Z,4.15
2022-09-10T01:23:58.439Z,3.45
2022-09-10T01:26:42.028Z,6.47
2022-09-10T01:29:18.947Z,3.20
2022-09-10T01:31:52.125Z,3.08
2022-09-10T01:34:27.637Z,1.92
2022-09-10T01:37:03.084Z,7.60
2022-09-10T01:39:31.691Z,3.20
2022-09-10T01:42:01.307Z,6.57
2022-09-10T01:44:47.104Z,2.78
2022-09-10T01:47:36.037Z,4.10
2022-09-10T01:50:16.604Z,5.10
2022-09-10T01:52:57.453Z,6.15
2022-09-10T01:55:36.451Z,3.72
2022-09-10T01:58:11.922Z,4.20
2022-09-10T02:00:54.332Z,5.78
2022-09-10T02:03:25.865Z,3.65
2022-09-10T02:05:56.060Z,3.53
2022-09-10T02:08:28.624Z,3.95
2022-09-10T02:10:59.691Z,3.60
2022-09-10T02:13:31.835Z,7.82
2022-09-10T02:16:35.513Z,5.10
2022-09-10T02:19:04.977Z,8.63
2022-09-10T02:21:35.016Z,4.90
2022-09-10T02:24:07.698Z,5.00
2022-09-10T02:26:38.130Z,5.07
2022-09-10T02:29:09.360Z,5.30
2022-09-10T02:31:40.923Z,4.10
2022-09-10T02:34:09.203Z,4.22
2022-09-10T02:36:37.636Z,5.22
2022-09-10T02:39:07.935Z,6.05
2022-09-10T02:41:36.710Z,6.90
2022-09-10T02:44:05.405Z,5.03
2022-09-10T02:46:33.672Z,4.43
2022-09-10T02:49:03.044Z,8.35
2022-09-10T02:51:33.170Z,4.57
2022-09-10T02:54:01.399Z,3.25
2022-09-10T02:56:29.427Z,4.70
2022-09-10T02:58:59.084Z,6.43
2022-09-10T03:01:28.455Z,4.70
2022-09-10T03:04:03.322Z,6.82
2022-09-10T03:06:32.697Z,3.80
2022-09-10T03:09:02.118Z,3.85
2022-09-10T03:11:30.266Z,3.15
2022-09-10T03:13:59.707Z,3.80
2022-09-10T03:16:28.996Z,4.75
2022-09-10T03:18:57.096Z,3.42
2022-09-10T03:21:26.670Z,5.55
2022-09-10T03:23:57.226Z,8.30
2022-09-10T03:26:30.394Z,1.70
2022-09-10T03:28:58.674Z,4.47
2022-09-10T03:31:29.364Z,2.42
2022-09-10T03:33:59.684Z,6.32
2022-09-10T03:36:31.542Z,2.15
2022-09-10T03:39:00.479Z,2.20
2022-09-10T03:41:31.961Z,3.90
2022-09-10T03:44:01.676Z,2.83
2022-09-10T03:46:29.738Z,2.53
2022-09-10T03:49:02.285Z,6.28
2022-09-10T03:51:34.044Z,3.42
2022-09-10T03:54:02.468Z,4.03
2022-09-10T03:56:33.006Z,2.80
2022-09-10T03:59:01.327Z,6.03
2022-09-10T04:01:30.009Z,5.63
2022-09-10T04:03:58.634Z,2.85
2022-09-10T04:06:32.204Z,3.47
2022-09-10T04:09:02.301Z,8.00
2022-09-10T04:11:30.668Z,3.25
2022-09-10T04:14:00.106Z,6.55
2022-09-10T04:16:29.205Z,4.97
2022-09-10T04:18:57.367Z,4.10
2022-09-10T04:21:25.530Z,2.95
2022-09-10T04:23:59.449Z,3.63
2022-09-10T04:26:30.295Z,3.10
2022-09-10T04:28:58.388Z,8.00
2022-09-10T04:31:26.952Z,5.55
2022-09-10T04:34:02.049Z,5.78
2022-09-10T04:36:31.494Z,2.97
2022-09-10T04:38:59.841Z,7.30
2022-09-10T04:41:28.285Z,6.85
2022-09-10T04:43:58.410Z,4.85
2022-09-10T04:46:26.814Z,5.93
2022-09-10T04:48:58.046Z,3.35
2022-09-10T04:51:26.273Z,7.25
2022-09-10T04:53:55.715Z,9.05
2022-09-10T04:56:29.021Z,3.15
2022-09-10T04:58:58.363Z,5.00
2022-09-10T05:01:28.892Z,4.03
2022-09-10T05:03:57.061Z,4.43
2022-09-10T05:06:25.454Z,4.20
2022-09-10T05:08:55.542Z,5.28
2022-09-10T05:11:23.726Z,4.28
2022-09-10T05:13:53.317Z,5.45
2022-09-10T05:16:25.425Z,4.13
2022-09-10T05:18:54.348Z,4.57
2022-09-10T05:21:22.558Z,3.00
2022-09-10T05:23:50.941Z,3.25
2022-09-10T05:26:18.982Z,4.85
2022-09-10T05:28:47.610Z,4.97
2022-09-10T05:31:17.477Z,4.82
2022-09-10T05:33:47.985Z,3.85
2022-09-10T05:36:16.137Z,4.43
2022-09-10T05:38:46.639Z,7.40
2022-09-10T05:41:18.435Z,5.13
2022-09-10T05:43:49.943Z,2.83
2022-09-10T05:46:18.900Z,5.75
2022-09-10T05:48:53.932Z,7.78
2022-09-10T05:51:22.280Z,4.95
2022-09-10T05:53:51.533Z,5.13
2022-09-10T05:56:20.520Z,3.17
2022-09-10T05:58:49.580Z,3.83
2022-09-10T06:01:18.832Z,2.83
2022-09-10T06:03:47.340Z,2.20
2022-09-10T06:06:16.816Z,4.15
2022-09-10T06:08:53.402Z,3.45
2022-09-10T06:11:35.922Z,7.93
2022-09-10T06:14:03.972Z,6.38
2022-09-10T06:16:32.670Z,2.58
2022-09-10T06:19:03.330Z,3.97
2022-09-10T06:21:32.732Z,5.20
2022-09-10T06:24:01.223Z,4.75
2022-09-10T06:26:33.230Z,3.55
2022-09-10T06:29:06.319Z,6.35
2022-09-10T06:31:35.640Z,4.55
2022-09-10T06:34:04.555Z,6.07
2022-09-10T06:36:35.113Z,3.63
2022-09-10T06:39:03.487Z,4.30
2022-09-10T06:41:39.036Z,3.90
2022-09-10T06:44:12.700Z,8.02
2022-09-10T06:47:28.232Z,4.30
2022-09-10T06:49:38.982Z,3.47
2022-09-10T06:52:08.420Z,3.45
2022-09-10T06:54:36.500Z,3.13
2022-09-10T06:57:19.507Z,1.75
2022-09-10T06:59:47.674Z,3.00
2022-09-10T07:02:15.716Z,4.03
2022-09-10T07:04:44.430Z,2.78
2022-09-10T07:07:13.770Z,3.33
2022-09-10T07:09:41.814Z,3.28
2022-09-10T07:12:13.178Z,2.53
2022-09-10T07:14:43.017Z,5.15
2022-09-10T07:17:12.678Z,1.80
2022-09-10T07:19:40.776Z,4.80
2022-09-10T07:22:32.953Z,3.08
2022-09-10T07:25:01.275Z,3.70
2022-09-10T07:27:43.383Z,0.90
2022-09-10T07:30:12.829Z,3.75
2022-09-10T07:32:41.360Z,2.53
2022-09-10T07:35:15.339Z,3.50
2022-09-10T07:37:46.230Z,3.22
2022-09-10T07:40:15.817Z,3.92
2022-09-10T07:42:45.702Z,2.53
2022-09-10T07:45:16.730Z,2.10
2022-09-10T07:47:45.630Z,2.63
2022-09-10T07:50:14.796Z,2.92
2022-09-10T07:52:44.464Z,3.65
2022-09-10T07:55:13.910Z,2.58
2022-09-10T07:57:43.805Z,1.17
2022-09-10T08:00:14.936Z,0.82
2022-09-10T08:02:51.881Z,2.50
2022-09-10T08:05:23.442Z,1.05
2022-09-10T08:07:55.198Z,1.65
2022-09-10T08:10:26.729Z,3.05
2022-09-10T08:12:54.790Z,2.50
2022-09-10T08:15:24.388Z,2.05
2022-09-10T08:17:53.357Z,1.48
2022-09-10T08:20:25.193Z,0.93
2022-09-10T08:22:57.243Z,0.75
2022-09-10T08:25:26.123Z,1.00
2022-09-10T08:27:55.436Z,1.42
2022-09-10T08:30:24.193Z,1.40
2022-09-10T08:32:54.697Z,3.90
2022-09-10T08:35:22.825Z,0.63
2022-09-10T08:37:51.136Z,0.45
2022-09-10T08:40:23.649Z,0.50
2022-09-10T08:42:53.197Z,1.48
2022-09-10T08:45:28.200Z,1.90
2022-09-10T08:47:59.880Z,2.63
2022-09-10T08:50:36.657Z,1.95
2022-09-10T08:53:22.858Z,1.10
2022-09-10T08:55:55.142Z,1.00
2022-09-10T08:58:29.651Z,1.80
2022-09-10T09:01:02.614Z,1.67
2022-09-10T09:03:37.608Z,1.13
2022-09-10T09:06:08.880Z,1.90
2022-09-10T09:08:48.285Z,2.20
2022-09-10T09:11:34.284Z,0.90
2022-09-10T09:14:25.345Z,1.58
2022-09-10T09:17:10.124Z,2.80
2022-09-10T09:19:46.000Z,3.83
2022-09-10T09:22:19.401Z,1.90
2022-09-10T09:24:56.513Z,2.97
2022-09-10T09:27:30.976Z,11.70
2022-09-10T09:30:02.808Z,4.15
2022-09-10T09:32:37.562Z,3.08
2022-09-10T09:35:17.706Z,4.97
2022-09-10T09:37:48.439Z,3.15
2022-09-10T09:40:28.093Z,3.55
2022-09-10T09:43:00.188Z,2.70
2022-09-10T09:45:37.201Z,3.10
2022-09-10T09:48:06.788Z,0.90
2022-09-10T09:50:38.726Z,1.67
2022-09-10T09:53:06.774Z,2.03
2022-09-10T09:55:40.526Z,2.78
2022-09-10T09:58:29.400Z,1.98
2022-09-10T10:01:12.956Z,2.53
2022-09-10T10:03:52.175Z,2.88
2022-09-10T10:06:24.603Z,2.17
2022-09-10T10:09:05.157Z,2.45
2022-09-10T10:11:46.540Z,2.17
2022-09-10T10:14:34.965Z,1.92
2022-09-10T10:17:03.420Z,4.20
2022-09-10T10:19:34.818Z,2.22
2022-09-10T10:22:22.664Z,5.05
2022-09-10T10:24:53.934Z,2.33
2022-09-10T10:27:29.916Z,2.55
2022-09-10T10:30:01.739Z,3.80
2022-09-10T10:32:47.054Z,1.73
2022-09-10T10:35:32.654Z,2.10
2022-09-10T10:38:31.853Z,3.33
2022-09-10T10:41:24.405Z,4.22
2022-09-10T10:44:03.573Z,1.88
2022-09-10T10:46:40.469Z,3.30
2022-09-10T10:49:22.774Z,9.23
2022-09-10T10:52:01.599Z,3.72
2022-09-10T10:54:45.837Z,5.68
2022-09-10T10:57:27.317Z,2.05
2022-09-10T11:00:01.035Z,3.28
2022-09-10T11:02:39.328Z,1.38
2022-09-10T11:05:20.070Z,3.83
2022-09-10T11:07:48.549Z,2.60
2022-09-10T11:10:23.355Z,2.85
2022-09-10T11:12:55.739Z,2.78
2022-09-10T11:15:31.029Z,2.67
2022-09-10T11:18:07.006Z,1.45
2022-09-10T11:20:42.376Z,4.13
2022-09-10T11:23:20.478Z,1.38
2022-09-10T11:25:55.714Z,3.53
2022-09-10T11:28:29.201Z,2.20
2022-09-10T11:31:03.176Z,3.47
2022-09-10T11:33:39.932Z,1.83
2022-09-10T11:36:16.744Z,1.73
2022-09-10T11:38:52.893Z,2.92
2022-09-10T11:41:25.872Z,2.85
2022-09-10T11:44:00.755Z,3.33
2022-09-10T11:46:36.616Z,3.58
2022-09-10T11:49:13.338Z,6.00
2022-09-10T11:51:42.497Z,4.18
2022-09-10T11:54:14.319Z,5.15
2022-09-10T11:56:52.827Z,3.97
2022-09-10T11:59:42.289Z,4.20
2022-09-10T12:02:32.623Z,3.13
2022-09-10T12:05:07.834Z,3.90
2022-09-10T12:07:47.153Z,6.03
2022-09-10T12:10:23.890Z,6.10
2022-09-10T12:12:53.259Z,2.67
2022-09-10T12:15:24.627Z,3.25
2022-09-10T12:17:58.758Z,5.70
2022-09-10T12:20:31.289Z,7.63
2022-09-10T12:23:00.219Z,10.23
2022-09-10T12:25:34.253Z,3.63
2022-09-10T12:28:07.769Z,3.50
2022-09-10T12:31:02.822Z,3.78
2022-09-10T12:34:00.776Z,4.72
2022-09-10T12:37:11.687Z,20.45
2022-09-10T12:39:41.275Z,12.70
2022-09-10T12:42:32.460Z,13.20
2022-09-10T12:45:00.710Z,7.93
2022-09-10T12:47:52.748Z,6.78
2022-09-10T12:50:45.968Z,15.23
2022-09-10T12:53:45.157Z,9.90
2022-09-10T12:56:45.597Z,14.63
2022-09-10T12:59:39.633Z,5.45
2022-09-10T13:02:21.364Z,6.97
2022-09-10T13:04:57.172Z,3.20
2022-09-10T13:07:31.537Z,3.92
2022-09-10T13:10:04.004Z,4.10
2022-09-10T13:12:37.497Z,3.30
2022-09-10T13:15:07.092Z,3.35
2022-09-10T13:17:41.231Z,3.35
2022-09-10T13:20:31.913Z,2.85
2022-09-10T13:23:05.861Z,3.08
2022-09-10T13:25:41.401Z,3.28
2022-09-10T13:28:46.960Z,2.45
2022-09-10T13:31:24.222Z,5.63
2022-09-10T13:34:15.310Z,2.42
2022-09-10T13:36:54.674Z,2.55
2022-09-10T13:39:57.235Z,4.20
2022-09-10T13:42:56.012Z,3.50
2022-09-10T13:45:28.317Z,2.08
2022-09-10T13:48:04.567Z,2.95
2022-09-10T13:50:41.543Z,3.58
2022-09-10T13:53:13.577Z,4.15
2022-09-10T13:55:51.583Z,4.13
2022-09-10T13:58:23.139Z,4.65
2022-09-10T14:00:54.162Z,3.70
2022-09-10T14:03:25.846Z,6.20
2022-09-10T14:05:57.604Z,4.68
2022-09-10T14:08:29.301Z,3.55
2022-09-10T14:11:01.245Z,4.30
2022-09-10T14:13:34.459Z,3.67
2022-09-10T14:16:05.641Z,3.58
2022-09-10T14:18:40.769Z,6.00
2022-09-10T14:21:08.913Z,3.35
2022-09-10T14:23:40.178Z,5.88
2022-09-10T14:26:23.185Z,5.78
2022-09-10T14:28:57.111Z,3.00
2022-09-10T14:31:38.157Z,5.65
2022-09-10T14:34:33.790Z,4.68
2022-09-10T14:37:02.999Z,4.28
2022-09-10T14:39:31.071Z,3.45
2022-09-10T14:42:25.168Z,6.25
2022-09-10T14:44:53.256Z,6.13
2022-09-10T14:47:30.243Z,7.43
2022-09-10T14:50:32.030Z,5.75
2022-09-10T14:53:00.197Z,3.97
2022-09-10T14:55:31.195Z,3.53
2022-09-10T14:57:59.863Z,9.10
2022-09-10T15:00:28.417Z,5.53
2022-09-10T15:02:57.251Z,5.20
2022-09-10T15:05:25.649Z,5.10
2022-09-10T15:07:55.008Z,5.43
2022-09-10T15:10:23.049Z,4.80
2022-09-10T15:12:53.099Z,5.07
2022-09-10T15:15:21.250Z,6.95
2022-09-10T15:17:49.314Z,5.82
2022-09-10T15:20:17.946Z,7.22
2022-09-10T15:22:45.966Z,6.82
2022-09-10T15:25:29.717Z,6.07
2022-09-10T15:27:57.833Z,5.78
2022-09-10T15:30:26.327Z,4.30
2022-09-10T15:32:54.678Z,8.45
2022-09-10T15:35:23.257Z,5.65
2022-09-10T15:37:51.973Z,5.07
2022-09-10T15:40:21.555Z,5.72
2022-09-10T15:42:50.185Z,7.18
2022-09-10T15:45:18.200Z,5.35
2022-09-10T15:47:46.253Z,6.45
2022-09-10T15:50:15.776Z,6.10
2022-09-10T15:52:44.790Z,6.93
2022-09-10T15:55:13.540Z,6.60
2022-09-10T15:57:42.898Z,7.45
2022-09-10T16:00:13.854Z,8.10
2022-09-10T16:02:47.041Z,9.13
2022-09-10T16:05:16.351Z,8.48
2022-09-10T16:07:44.779Z,7.78
2022-09-10T16:10:13.222Z,9.15
2022-09-10T16:12:42.670Z,9.88
2022-09-10T16:15:12.218Z,8.70
2022-09-10T16:17:40.794Z,9.30
2022-09-10T16:20:09.764Z,9.85
2022-09-10T16:22:37.871Z,8.65
2022-09-10T16:25:08.389Z,10.13
2022-09-10T16:27:38.622Z,9.63
2022-09-10T16:30:11.946Z,9.40
2022-09-10T16:32:40.059Z,10.23
2022-09-10T16:35:09.058Z,11.70
2022-09-10T16:37:37.357Z,9.30
2022-09-10T16:40:07.122Z,8.85
2022-09-10T16:42:35.184Z,8.73
2022-09-10T16:45:03.202Z,9.15
2022-09-10T16:47:33.593Z,9.27
2022-09-10T16:50:01.568Z,6.90
2022-09-10T16:52:30.837Z,7.68
2022-09-10T16:54:58.830Z,6.78
2022-09-10T16:57:26.899Z,8.63
2022-09-10T16:59:54.878Z,9.20
2022-09-10T17:02:23.018Z,7.30
2022-09-10T17:04:52.446Z,8.13
2022-09-10T17:07:20.438Z,6.00
2022-09-10T17:09:48.408Z,8.25
2022-09-10T17:12:16.409Z,7.10
2022-09-10T17:14:44.820Z,7.90
2022-09-10T17:17:13.863Z,11.25
2022-09-10T17:19:42.887Z,8.15
2022-09-10T17:22:12.361Z,9.25
2022-09-10T17:24:40.457Z,8.68
2022-09-10T17:27:09.061Z,10.43
2022-09-10T17:29:38.530Z,10.55
2022-09-10T17:32:06.561Z,10.05
2022-09-10T17:34:34.742Z,13.32
2022-09-10T17:37:02.838Z,10.23
2022-09-10T17:39:32.625Z,10.80
2022-09-10T17:42:00.750Z,10.45
2022-09-10T17:44:28.857Z,15.50
2022-09-10T17:46:56.876Z,11.63
2022-09-10T17:49:25.415Z,11.05
2022-09-10T17:51:53.637Z,13.10
2022-09-10T17:54:21.703Z,11.25
2022-09-10T17:56:51.079Z,13.05
2022-09-10T17:59:19.274Z,13.95
2022-09-10T18:01:47.569Z,12.52
2022-09-10T18:04:15.813Z,13.45
2022-09-10T18:06:47.877Z,15.07
2022-09-10T18:09:18.444Z,15.25
2022-09-10T18:11:46.508Z,14.45
2022-09-10T18:14:18.515Z,18.25
2022-09-10T18:16:47.114Z,14.57
2022-09-10T18:19:18.097Z,15.57
2022-09-10T18:21:47.700Z,15.15
2022-09-10T18:24:17.868Z,15.80
2022-09-10T18:26:47.571Z,14.00
2022-09-10T18:29:19.021Z,14.48
2022-09-10T18:31:49.279Z,15.30
2022-09-10T18:34:22.994Z,16.27
2022-09-10T18:36:54.540Z,15.27
2022-09-10T18:39:24.116Z,15.70
2022-09-10T18:41:53.086Z,14.23
2022-09-10T18:44:25.391Z,17.65
2022-09-10T18:46:54.162Z,15.52
2022-09-10T18:49:24.451Z,15.18
2022-09-10T18:51:54.047Z,17.45
2022-09-10T18:54:23.132Z,15.63
2022-09-10T18:56:53.316Z,16.25
2022-09-10T18:59:24.302Z,17.38
2022-09-10T19:01:54.399Z,16.95
2022-09-10T19:04:24.201Z,16.17
2022-09-10T19:06:52.473Z,16.58
2022-09-10T19:09:22.833Z,18.67
2022-09-10T19:11:53.101Z,17.35
2022-09-10T19:14:25.984Z,17.08
2022-09-10T19:16:56.241Z,16.15
2022-09-10T19:19:25.926Z,16.23
2022-09-10T19:21:55.743Z,14.88
2022-09-10T19:24:37.910Z,17.92
2022-09-10T19:27:12.407Z,17.45
2022-09-10T19:29:43.007Z,17.67
2022-09-10T19:32:11.251Z,16.77
2022-09-10T19:34:39.520Z,20.17
2022-09-10T19:37:07.528Z,21.00
2022-09-10T19:39:35.528Z,17.85
2022-09-10T19:42:04.228Z,18.77
2022-09-10T19:44:33.487Z,17.80
2022-09-10T19:47:03.973Z,17.92
2022-09-10T19:49:32.247Z,19.17
2022-09-10T19:52:00.246Z,18.52
2022-09-10T19:54:29.736Z,23.77
2022-09-10T19:56:57.790Z,19.25
2022-09-10T19:59:25.938Z,22.35
2022-09-10T20:01:54.126Z,24.40
2022-09-10T20:04:25.513Z,19.73
2022-09-10T20:06:53.514Z,21.25
2022-09-10T20:09:21.584Z,19.20
2022-09-10T20:11:49.605Z,21.42
2022-09-10T20:14:17.589Z,23.67
2022-09-10T20:16:46.593Z,22.30
2022-09-10T20:19:18.320Z,20.98
2022-09-10T20:21:48.025Z,22.42
2022-09-10T20:24:16.729Z,22.25
2022-09-10T20:26:46.285Z,22.27
2022-09-10T20:29:16.478Z,23.77
2022-09-10T20:31:46.187Z,23.38
2022-09-10T20:34:17.805Z,20.90
2022-09-10T20:36:48.180Z,23.58
2022-09-10T20:39:17.874Z,20.42
2022-09-10T20:41:46.725Z,20.77
2022-09-10T20:44:16.797Z,18.52
2022-09-10T20:46:45.818Z,19.58
2022-09-10T20:49:16.197Z,19.20
2022-09-10T20:51:44.693Z,19.10
2022-09-10T20:54:16.370Z,22.33
2022-09-10T20:56:45.120Z,18.05
2022-09-10T20:59:15.386Z,19.83
2022-09-10T21:01:46.266Z,20.15
2022-09-10T21:04:14.907Z,19.25
2022-09-10T21:06:42.946Z,19.30
2022-09-10T21:09:10.957Z,20.90
2022-09-10T21:11:40.683Z,21.55
2022-09-10T21:14:09.144Z,19.42
2022-09-10T21:16:39.402Z,20.50
2022-09-10T21:19:10.006Z,19.17
2022-09-10T21:21:40.299Z,18.58
2022-09-10T21:24:09.821Z,18.23
2022-09-10T21:26:40.669Z,21.08
2022-09-10T21:29:11.076Z,20.10
2022-09-10T21:31:39.629Z,18.58
2022-09-10T21:34:08.293Z,20.73
2022-09-10T21:36:37.968Z,19.90
2022-09-10T21:39:09.701Z,19.90
2022-09-10T21:41:40.702Z,21.05
2022-09-10T21:44:14.160Z,20.40
2022-09-10T21:46:42.934Z,19.70
2022-09-10T21:49:11.730Z,19.70
2022-09-10T21:51:41.086Z,22.15
2022-09-10T21:54:13.966Z,21.23
2022-09-10T21:56:43.398Z,23.17
2022-09-10T21:59:12.842Z,24.63
2022-09-10T22:01:43.214Z,24.08
2022-09-10T22:04:12.234Z,23.85
2022-09-10T22:06:40.579Z,22.73
2022-09-10T22:09:10.613Z,25.95
2022-09-10T22:11:41.719Z,22.35
2022-09-10T22:14:14.841Z,23.60
2022-09-10T22:16:43.326Z,26.60
2022-09-10T22:19:14.071Z,24.27
2022-09-10T22:21:42.522Z,22.92
2022-09-10T22:24:12.337Z,22.73
2022-09-10T22:26:43.180Z,23.67
2022-09-10T22:29:13.598Z,26.42
2022-09-10T22:31:41.655Z,25.90
2022-09-10T22:34:13.324Z,26.60
2022-09-10T22:36:42.983Z,24.77
2022-09-10T22:39:13.902Z,27.23
2022-09-10T22:41:42.803Z,23.05
2022-09-10T22:44:12.870Z,23.98
2022-09-10T22:46:41.788Z,26.50
2022-09-10T22:49:10.353Z,28.30
2022-09-10T22:51:40.860Z,29.00
2022-09-10T22:54:10.557Z,29.38
2022-09-10T22:56:39.478Z,24.80
2022-09-10T22:59:12.039Z,28.38
2022-09-10T23:01:43.253Z,28.33
2022-09-10T23:04:12.313Z,26.35
2022-09-10T23:06:40.734Z,24.65
2022-09-10T23:09:11.549Z,25.83
2022-09-10T23:11:40.894Z,27.92
2022-09-10T23:14:12.931Z,27.95
2022-09-10T23:16:44.149Z,26.45
2022-09-10T23:19:13.941Z,25.88
2022-09-10T23:21:44.123Z,28.35
2022-09-10T23:24:14.087Z,27.67
2022-09-10T23:26:42.750Z,27.92
2022-09-10T23:29:11.749Z,30.80
2022-09-10T23:31:41.804Z,31.17
2022-09-10T23:34:12.416Z,30.45
2022-09-10T23:36:42.548Z,30.80
2022-09-10T23:39:13.939Z,29.75
2022-09-10T23:41:42.453Z,34.60
2022-09-10T23:44:10.629Z,30.63
2022-09-10T23:46:38.826Z,29.35
2022-09-10T23:49:08.912Z,31.52
2022-09-10T23:51:37.593Z,29.33
2022-09-10T23:54:05.984Z,34.33
2022-09-10T23:56:34.362Z,36.33
2022-09-10T23:59:03.422Z,36.03
